Time;durP1;ratioP1;P1;durP2;ratioP2;P2;SDS_P1;SDS_P2;PMS_P1;PMS_P2;Temp;Humidity;BMP_temperature;BMP_pressure;BME280_temperature;BME280_humidity;BME280_pressure;Samples;Min_cycle;Max_cycle;Signal;HPM_P1;HPM_P2
2024/01/01 00:01:46;;;;;;;36.40;24.80;;;;;;;3.31;85.03;100552.09;108970;1255;64914;-66
2024/01/01 00:04:13;;;;;;;39.70;22.90;;;;;;;3.34;85.14;100551.89;108689;1255;139602;-67
2024/01/01 00:06:40;;;;;;;36.60;23.30;;;;;;;3.38;85.29;100556.20;109010;1255;59023;-66
2024/01/01 00:09:07;;;;;;;37.40;22.00;;;;;;;3.39;85.06;100552.64;108668;1260;138936;-61
2024/01/01 00:11:35;;;;;;;36.60;23.00;;;;;;;3.41;85.03;100553.59;108975;1257;75031;-66
2024/01/01 00:14:02;;;;;;;33.80;22.70;;;;;;;3.41;84.93;100547.71;108980;1255;64470;-66
2024/01/01 00:16:29;;;;;;;36.30;21.90;;;;;;;3.41;84.91;100540.09;108844;1256;139302;-61
2024/01/01 00:18:55;;;;;;;37.90;21.90;;;;;;;3.41;84.98;100534.36;104990;1261;61385;-67
2024/01/01 00:21:22;;;;;;;39.10;22.80;;;;;;;3.39;84.72;100534.64;105023;1257;139468;-61
2024/01/01 00:23:49;;;;;;;37.70;22.90;;;;;;;3.37;84.81;100537.08;105019;1257;74971;-61
2024/01/01 00:26:15;;;;;;;35.90;21.30;;;;;;;3.34;84.88;100534.16;104759;1260;65469;-62
2024/01/01 00:28:42;;;;;;;35.20;21.80;;;;;;;3.33;84.86;100532.55;104873;1257;139185;-66
2024/01/01 00:31:09;;;;;;;34.80;21.70;;;;;;;3.31;84.92;100529.71;104957;1256;61454;-65
2024/01/01 00:33:36;;;;;;;36.90;23.20;;;;;;;3.29;84.99;100519.21;104858;1257;138449;-61
2024/01/01 00:36:02;;;;;;;38.50;25.20;;;;;;;3.26;84.81;100518.69;104915;1257;75237;-65
2024/01/01 00:38:29;;;;;;;43.20;25.20;;;;;;;3.24;84.97;100516.70;104982;1256;67953;-66
2024/01/01 00:40:56;;;;;;;36.40;23.50;;;;;;;3.24;84.96;100517.39;104857;1257;139155;-66
2024/01/01 00:43:22;;;;;;;36.00;22.70;;;;;;;3.25;85.14;100509.81;104946;1260;61311;-65
2024/01/01 00:45:49;;;;;;;41.10;23.30;;;;;;;3.27;85.11;100510.42;104847;1260;138796;-66
2024/01/01 00:48:16;;;;;;;38.00;22.00;;;;;;;3.27;85.12;100509.42;104929;1256;75212;-66
2024/01/01 00:50:44;;;;;;;38.10;22.60;;;;;;;3.28;85.07;100506.18;108764;1256;139250;-65
2024/01/01 00:53:11;;;;;;;40.00;23.80;;;;;;;3.29;85.09;100507.07;108876;1257;73320;-66
2024/01/01 00:55:37;;;;;;;40.40;23.50;;;;;;;3.30;85.10;100504.16;108890;1256;59194;-66
2024/01/01 00:58:06;;;;;;;36.50;23.00;;;;;;;3.27;84.92;100501.09;108774;1258;138710;-62
2024/01/01 01:00:32;;;;;;;40.30;25.60;;;;;;;3.26;84.90;100499.45;108919;1256;74721;-62
2024/01/01 01:02:59;;;;;;;39.60;22.70;;;;;;;3.29;85.02;100499.23;108778;1257;139885;-63
2024/01/01 01:05:26;;;;;;;39.90;23.80;;;;;;;3.30;84.87;100496.04;108039;1257;72542;-61
2024/01/01 01:07:53;;;;;;;40.00;23.70;;;;;;;3.31;84.83;100495.54;105077;1257;59778;-62
2024/01/01 01:10:20;;;;;;;35.40;22.60;;;;;;;3.33;84.91;100490.41;104990;1256;138806;-62
2024/01/01 01:12:46;;;;;;;37.20;22.40;;;;;;;3.32;84.78;100491.79;104936;1258;75244;-61
2024/01/01 01:15:13;;;;;;;39.50;23.00;;;;;;;3.31;84.92;100495.71;104880;1260;139187;-62
2024/01/01 01:17:40;;;;;;;37.10;23.90;;;;;;;3.31;84.85;100494.84;105103;1257;73970;-67
2024/01/01 01:20:07;;;;;;;34.20;22.30;;;;;;;3.33;84.82;100491.28;105112;1257;61316;-67
2024/01/01 01:22:33;;;;;;;37.70;23.20;;;;;;;3.34;85.02;100488.05;104998;1257;138593;-62
2024/01/01 01:25:00;;;;;;;40.50;22.50;;;;;;;3.35;84.98;100485.17;105023;1259;75973;-61
2024/01/01 01:27:27;;;;;;;38.60;24.90;;;;;;;3.33;84.79;100478.29;104969;1257;139557;-68
2024/01/01 01:29:53;;;;;;;37.70;23.70;;;;;;;3.29;84.81;100474.64;104993;1256;74340;-67
2024/01/01 01:32:20;;;;;;;34.00;22.80;;;;;;;3.27;84.70;100471.10;105012;1256;61282;-61
2024/01/01 01:34:46;;;;;;;37.40;23.90;;;;;;;3.26;84.82;100472.77;104742;1257;138495;-61
2024/01/01 01:37:13;;;;;;;36.70;23.10;;;;;;;3.26;84.87;100466.52;105116;1259;73479;-63
2024/01/01 01:39:40;;;;;;;34.40;22.60;;;;;;;3.28;84.86;100466.25;104608;1259;139417;-61
2024/01/01 01:42:09;;;;;;;39.00;23.10;;;;;;;3.30;85.02;100462.05;105151;1255;70804;-62
2024/01/01 01:44:36;;;;;;;40.00;23.90;;;;;;;3.29;84.79;100458.17;105226;1255;61279;-62
2024/01/01 01:47:03;;;;;;;35.30;22.40;;;;;;;3.28;84.85;100455.55;104989;1259;138357;-66
2024/01/01 01:49:31;;;;;;;37.20;24.20;;;;;;;3.27;84.80;100453.00;105057;1259;73789;-61
2024/01/01 01:51:57;;;;;;;35.40;21.80;;;;;;;3.25;84.83;100450.35;104860;1255;138115;-62
2024/01/01 01:54:24;;;;;;;36.90;22.30;;;;;;;3.26;84.97;100446.58;105004;1259;72733;-66
2024/01/01 01:56:51;;;;;;;36.60;22.20;;;;;;;3.23;84.89;100445.73;104807;1262;141121;-66
2024/01/01 01:59:18;;;;;;;40.90;23.80;;;;;;;3.17;84.73;100440.77;104935;1257;61439;-66
2024/01/01 02:01:44;;;;;;;39.70;23.40;;;;;;;3.16;84.88;100434.63;104956;1257;73238;-67
2024/01/01 02:04:11;;;;;;;39.70;23.40;;;;;;;3.16;84.83;100429.06;104648;1257;139077;-62
2024/01/01 02:06:37;;;;;;;37.20;24.20;;;;;;;3.17;84.97;100430.16;105097;1259;73205;-63
2024/01/01 02:09:04;;;;;;;35.70;22.50;;;;;;;3.16;84.96;100436.18;104978;1257;139878;-66
2024/01/01 02:11:31;;;;;;;35.20;22.70;;;;;;;3.16;84.96;100436.54;105131;1257;61273;-66
2024/01/01 02:14:11;;;;;;;42.10;23.00;;;;;;;3.18;85.05;100436.47;104894;1257;75135;-67
2024/01/01 02:16:41;;;;;;;37.50;24.00;;;;;;;3.21;85.05;100436.95;108543;1261;138945;-63
2024/01/01 02:19:16;;;;;;;42.40;24.70;;;;;;;3.23;85.11;100432.54;108793;1256;71618;-63
2024/01/01 02:21:42;;;;;;;41.90;24.90;;;;;;;3.24;84.91;100429.48;108810;1256;138561;-61
2024/01/01 02:24:09;;;;;;;38.60;22.90;;;;;;;3.26;84.91;100429.41;108976;1256;60334;-65
2024/01/01 02:26:36;;;;;;;42.60;24.40;;;;;;;3.31;85.13;100424.95;108471;1256;74518;-60
2024/01/01 02:29:02;;;;;;;40.80;24.60;;;;;;;3.33;84.94;100414.30;104982;1256;138949;-61
2024/01/01 02:31:29;;;;;;;38.00;23.60;;;;;;;3.35;85.03;100414.23;105126;1256;71204;-61
2024/01/01 02:33:56;;;;;;;37.00;24.40;;;;;;;3.37;85.01;100414.51;105085;1259;138587;-66
2024/01/01 02:36:24;;;;;;;39.90;23.70;;;;;;;3.36;84.81;100416.02;105087;1257;61166;-66
2024/01/01 02:38:51;;;;;;;35.50;21.90;;;;;;;3.33;84.87;100412.90;104948;1259;139637;-66
2024/01/01 02:41:18;;;;;;;44.20;24.00;;;;;;;3.34;84.88;100416.59;105137;1257;65759;-61
2024/01/01 02:43:44;;;;;;;41.10;23.50;;;;;;;3.36;84.95;100417.02;105126;1257;72405;-65
2024/01/01 02:46:11;;;;;;;34.50;22.20;;;;;;;3.37;85.00;100413.29;105135;1256;138735;-66
2024/01/01 02:48:38;;;;;;;48.10;24.20;;;;;;;3.39;85.03;100414.57;105062;1257;61335;-65
2024/01/01 02:51:04;;;;;;;42.70;21.60;;;;;;;3.40;85.02;100410.30;104971;1259;139587;-67
2024/01/01 02:53:34;;;;;;;39.40;24.20;;;;;;;3.42;85.04;100412.13;105025;1260;67315;-65
2024/01/01 02:56:01;;;;;;;39.80;23.50;;;;;;;3.42;84.87;100415.58;105080;1257;71858;-61
2024/01/01 02:58:27;;;;;;;39.10;24.90;;;;;;;3.41;84.93;100413.98;104761;1260;138837;-61
2024/01/01 03:00:54;;;;;;;43.00;24.20;;;;;;;3.40;84.94;100413.10;105111;1259;61211;-62
2024/01/01 03:03:21;;;;;;;37.70;21.80;;;;;;;3.41;84.92;100408.24;105012;1256;138630;-61
2024/01/01 03:05:48;;;;;;;43.10;23.50;;;;;;;3.40;85.05;100404.23;105066;1259;67477;-61
2024/01/01 03:08:14;;;;;;;38.80;22.50;;;;;;;3.40;85.00;100405.45;105183;1256;72241;-66
2024/01/01 03:10:41;;;;;;;33.90;20.50;;;;;;;3.40;84.89;100404.75;104956;1259;138875;-66
2024/01/01 03:13:08;;;;;;;38.30;22.00;;;;;;;3.40;85.00;100406.30;105195;1259;61286;-66
2024/01/01 03:15:34;;;;;;;36.10;23.50;;;;;;;3.40;84.97;100409.92;104980;1256;139413;-65
2024/01/01 03:18:02;;;;;;;41.40;22.70;;;;;;;3.42;85.14;100407.64;105039;1257;65591;-66
2024/01/01 03:20:31;;;;;;;36.90;20.90;;;;;;;3.43;85.07;100407.32;108752;1255;72702;-67
2024/01/01 03:22:57;;;;;;;32.20;21.30;;;;;;;3.44;85.05;100406.17;108858;1255;138468;-66
2024/01/01 03:25:24;;;;;;;29.10;20.10;;;;;;;3.45;85.01;100408.83;105890;1256;61260;-62
2024/01/01 03:27:51;;;;;;;40.00;21.60;;;;;;;3.46;85.00;100410.08;104980;1258;138714;-62
2024/01/01 03:30:19;;;;;;;34.60;20.70;;;;;;;3.47;84.86;100412.00;104983;1259;67021;-67
2024/01/01 03:32:46;;;;;;;33.50;20.40;;;;;;;3.49;85.01;100410.19;108818;1255;138599;-65
2024/01/01 03:35:13;;;;;;;33.70;21.20;;;;;;;3.52;85.06;100408.44;108959;1255;60085;-65
2024/01/01 03:37:40;;;;;;;33.40;20.60;;;;;;;3.54;84.84;100399.13;108986;1255;59885;-64
2024/01/01 03:40:07;;;;;;;31.00;19.20;;;;;;;3.54;84.88;100391.20;108902;1256;139135;-61
2024/01/01 03:42:34;;;;;;;32.20;21.10;;;;;;;3.57;84.94;100384.71;108910;1255;67323;-67
2024/01/01 03:45:00;;;;;;;36.20;20.40;;;;;;;3.60;84.98;100383.64;105253;1259;139324;-66
2024/01/01 03:47:27;;;;;;;35.10;20.40;;;;;;;3.61;84.94;100381.64;105091;1257;61708;-67
2024/01/01 03:49:55;;;;;;;30.80;20.70;;;;;;;3.61;84.83;100379.38;105092;1257;61326;-66
2024/01/01 03:52:21;;;;;;;36.60;21.90;;;;;;;3.62;84.75;100374.55;105103;1256;137779;-65
2024/01/01 03:54:48;;;;;;;40.20;24.70;;;;;;;3.60;84.94;100372.06;105131;1257;65954;-66
2024/01/01 03:57:14;;;;;;;49.40;27.20;;;;;;;3.57;84.67;100374.30;104913;1257;138940;-60
2024/01/01 03:59:41;;;;;;;42.80;27.30;;;;;;;3.54;84.77;100371.75;105097;1257;61313;-61
2024/01/01 04:02:10;;;;;;;41.90;24.40;;;;;;;3.53;84.84;100363.87;105111;1257;61334;-61
2024/01/01 04:04:37;;;;;;;44.20;25.10;;;;;;;3.49;84.77;100362.48;104984;1256;139018;-66
2024/01/01 04:07:03;;;;;;;41.00;22.20;;;;;;;3.48;84.84;100362.27;104767;1255;66940;-66
2024/01/01 04:09:30;;;;;;;45.20;22.20;;;;;;;3.47;85.06;100366.44;104981;1257;138661;-66
2024/01/01 04:11:57;;;;;;;37.80;22.10;;;;;;;3.47;84.97;100367.45;105059;1259;61323;-62
2024/01/01 04:14:25;;;;;;;39.30;22.50;;;;;;;3.48;85.10;100364.73;105002;1257;61340;-62
2024/01/01 04:16:52;;;;;;;40.20;22.30;;;;;;;3.49;85.01;100361.81;104847;1259;139097;-62
2024/01/01 04:19:18;;;;;;;34.40;20.10;;;;;;;3.51;85.16;100362.80;104739;1256;66520;-61
2024/01/01 04:21:45;;;;;;;33.30;22.30;;;;;;;3.53;85.30;100358.48;105008;1257;138756;-61
2024/01/01 04:24:12;;;;;;;33.20;21.10;;;;;;;3.53;85.08;100360.91;105132;1256;61262;-61
2024/01/01 04:26:38;;;;;;;29.60;21.90;;;;;;;3.52;85.11;100359.34;104966;1257;60987;-65
2024/01/01 04:29:05;;;;;;;31.30;21.10;;;;;;;3.53;85.11;100354.84;105130;1256;138440;-67
2024/01/01 04:31:32;;;;;;;30.70;21.00;;;;;;;3.53;85.08;100344.78;105196;1257;66704;-66
2024/01/01 04:33:58;;;;;;;31.50;21.30;;;;;;;3.53;85.22;100340.13;104822;1257;139252;-65
2024/01/01 04:36:25;;;;;;;30.20;19.80;;;;;;;3.53;85.13;100335.25;105134;1256;61410;-66
2024/01/01 04:38:51;;;;;;;34.40;20.90;;;;;;;3.53;85.09;100336.84;104817;1256;139041;-65
2024/01/01 04:41:18;;;;;;;32.80;20.50;;;;;;;3.55;85.16;100341.98;105020;1257;75654;-66
2024/01/01 04:43:45;;;;;;;31.20;20.30;;;;;;;3.56;85.31;100346.36;104918;1259;67192;-67
2024/01/01 04:46:12;;;;;;;32.40;20.10;;;;;;;3.57;85.26;100347.80;104857;1260;138896;-67
2024/01/01 04:48:39;;;;;;;33.10;20.70;;;;;;;3.58;85.29;100347.64;108691;1256;59016;-67
2024/01/01 04:51:06;;;;;;;31.40;20.10;;;;;;;3.59;85.24;100339.20;108612;1256;138772;-67
2024/01/01 04:53:32;;;;;;;30.40;19.10;;;;;;;3.61;85.26;100331.67;108755;1255;75110;-67
2024/01/01 04:55:59;;;;;;;27.30;18.30;;;;;;;3.63;85.19;100335.39;109002;1255;64084;-68
2024/01/01 04:58:26;;;;;;;26.60;18.20;;;;;;;3.64;85.10;100328.88;108676;1255;138656;-67
2024/01/01 05:00:52;;;;;;;27.80;18.40;;;;;;;3.66;85.22;100327.71;108956;1255;58991;-66
2024/01/01 05:03:19;;;;;;;28.90;19.40;;;;;;;3.67;85.06;100332.29;108841;1267;139147;-65
2024/01/01 05:05:46;;;;;;;28.00;17.90;;;;;;;3.68;85.11;100329.89;108963;1256;74409;-66
2024/01/01 05:08:13;;;;;;;30.30;18.40;;;;;;;3.69;84.99;100326.84;108975;1255;65201;-67
2024/01/01 05:10:40;;;;;;;30.40;17.60;;;;;;;3.69;84.96;100330.83;108621;1255;138787;-62
2024/01/01 05:13:08;;;;;;;24.60;18.10;;;;;;;3.70;85.05;100335.38;108956;1255;59005;-62
2024/01/01 05:15:35;;;;;;;25.30;18.60;;;;;;;3.74;85.08;100334.84;108853;1256;139129;-62
2024/01/01 05:18:01;;;;;;;29.50;18.60;;;;;;;3.74;84.98;100326.51;108926;1256;74721;-62
2024/01/01 05:20:28;;;;;;;26.80;17.50;;;;;;;3.76;84.91;100325.02;108126;1259;66747;-66
2024/01/01 05:22:55;;;;;;;29.20;18.90;;;;;;;3.75;84.89;100320.83;104982;1259;138954;-66
2024/01/01 05:25:21;;;;;;;28.80;18.60;;;;;;;3.74;84.94;100313.34;105062;1257;61347;-66
2024/01/01 05:27:48;;;;;;;26.00;18.10;;;;;;;3.74;84.94;100319.73;105061;1259;139154;-66
2024/01/01 05:30:15;;;;;;;30.00;17.90;;;;;;;3.74;84.96;100317.34;105091;1255;75067;-67
2024/01/01 05:32:42;;;;;;;28.10;18.90;;;;;;;3.74;85.00;100310.73;104786;1261;138967;-64
2024/01/01 05:35:08;;;;;;;33.80;18.80;;;;;;;3.72;85.01;100310.98;105061;1257;71803;-66
2024/01/01 05:37:35;;;;;;;28.80;19.00;;;;;;;3.72;85.04;100313.60;105182;1259;61385;-66
2024/01/01 05:40:03;;;;;;;31.40;19.10;;;;;;;3.72;85.06;100305.60;104980;1257;138203;-66
2024/01/01 05:42:31;;;;;;;29.50;19.80;;;;;;;3.70;85.05;100309.66;108962;1255;75015;-66
2024/01/01 05:44:58;;;;;;;31.20;18.70;;;;;;;3.66;85.15;100311.77;108840;1255;138216;-66
2024/01/01 05:47:24;;;;;;;29.00;18.90;;;;;;;3.65;85.04;100311.36;108783;1256;71566;-62
2024/01/01 05:49:51;;;;;;;27.90;19.50;;;;;;;3.64;85.00;100308.36;108972;1256;59103;-62
2024/01/01 05:52:21;;;;;;;28.90;18.80;;;;;;;3.64;85.01;100312.20;108883;1254;138413;-62
2024/01/01 05:54:48;;;;;;;27.40;18.90;;;;;;;3.62;85.04;100312.13;108982;1255;73446;-61
2024/01/01 05:57:15;;;;;;;27.70;18.70;;;;;;;3.63;85.14;100318.39;108841;1256;139106;-66
2024/01/01 05:59:42;;;;;;;33.90;18.60;;;;;;;3.65;85.13;100320.20;108795;1255;72750;-67
2024/01/01 06:02:08;;;;;;;28.70;19.00;;;;;;;3.65;85.11;100309.80;108780;1256;59020;-65
2024/01/01 06:04:35;;;;;;;27.90;19.20;;;;;;;3.64;85.09;100302.14;108877;1255;138597;-66
2024/01/01 06:07:02;;;;;;;29.50;18.60;;;;;;;3.63;85.01;100306.59;108705;1256;74581;-65
2024/01/01 06:09:29;;;;;;;29.10;20.50;;;;;;;3.64;85.18;100303.00;108823;1255;138801;-66
2024/01/01 06:11:55;;;;;;;27.20;18.80;;;;;;;3.67;85.22;100306.27;108707;1256;72734;-65
2024/01/01 06:14:22;;;;;;;30.60;18.30;;;;;;;3.68;85.22;100303.19;108808;1256;59565;-66
2024/01/01 06:16:49;;;;;;;29.00;18.90;;;;;;;3.68;85.14;100296.25;108826;1257;140450;-65
2024/01/01 06:19:15;;;;;;;26.70;17.50;;;;;;;3.69;85.03;100298.20;107124;1255;73755;-65
2024/01/01 06:21:42;;;;;;;29.70;19.60;;;;;;;3.70;85.15;100302.58;105009;1259;140973;-62
2024/01/01 06:24:08;;;;;;;27.70;18.10;;;;;;;3.70;85.24;100305.90;105037;1257;73429;-62
2024/01/01 06:26:35;;;;;;;31.20;19.20;;;;;;;3.74;85.25;100306.37;104954;1259;61288;-62
2024/01/01 06:29:02;;;;;;;31.80;19.30;;;;;;;3.73;85.18;100305.33;108690;1256;140019;-62
2024/01/01 06:31:28;;;;;;;30.50;19.50;;;;;;;3.74;85.40;100301.02;105177;1257;75244;-62
2024/01/01 06:33:56;;;;;;;27.50;18.60;;;;;;;3.74;85.36;100308.14;104924;1257;140102;-62
2024/01/01 06:36:22;;;;;;;30.70;19.60;;;;;;;3.75;85.30;100303.13;108902;1256;72838;-63
2024/01/01 06:38:49;;;;;;;26.20;19.30;;;;;;;3.74;85.29;100297.38;108835;1256;139061;-63
2024/01/01 06:41:16;;;;;;;31.30;19.60;;;;;;;3.74;85.26;100289.39;108979;1254;60419;-63
2024/01/01 06:43:43;;;;;;;32.10;20.30;;;;;;;3.74;85.28;100284.36;108824;1256;74252;-62
2024/01/01 06:46:11;;;;;;;33.30;20.00;;;;;;;3.73;85.29;100277.50;108720;1255;138811;-63
2024/01/01 06:48:37;;;;;;;27.40;18.80;;;;;;;3.73;85.25;100273.39;108937;1255;71812;-66
2024/01/01 06:51:11;;;;;;;30.20;19.50;;;;;;;3.75;85.27;100270.15;108822;1256;138545;-66
2024/01/01 06:53:37;;;;;;;27.20;19.00;;;;;;;3.76;85.28;100261.02;108844;1254;59357;-65
2024/01/01 06:56:04;;;;;;;32.80;20.10;;;;;;;3.77;85.28;100260.20;108954;1256;74660;-61
2024/01/01 06:58:31;;;;;;;27.30;18.90;;;;;;;3.78;85.22;100264.58;108875;1256;140805;-62
2024/01/01 07:00:57;;;;;;;32.70;20.10;;;;;;;3.78;85.32;100279.32;108949;1256;72015;-62
2024/01/01 07:03:24;;;;;;;33.50;20.40;;;;;;;3.78;85.37;100292.89;108846;1256;138859;-61
2024/01/01 07:05:51;;;;;;;34.60;20.10;;;;;;;3.80;85.32;100300.23;108946;1255;61091;-61
2024/01/01 07:08:17;;;;;;;28.80;19.50;;;;;;;3.81;85.24;100298.90;108938;1255;74407;-62
2024/01/01 07:10:44;;;;;;;30.20;19.70;;;;;;;3.83;85.41;100296.75;108900;1255;142078;-62
2024/01/01 07:13:11;;;;;;;33.90;20.40;;;;;;;3.84;85.38;100293.67;108952;1255;70634;-63
2024/01/01 07:15:38;;;;;;;32.70;20.10;;;;;;;3.86;85.42;100295.14;108866;1255;139074;-62
2024/01/01 07:18:06;;;;;;;34.90;21.00;;;;;;;3.87;85.35;100294.65;108970;1255;61149;-61
2024/01/01 07:20:32;;;;;;;33.30;21.70;;;;;;;3.88;85.34;100284.11;108957;1255;74746;-62
2024/01/01 07:23:00;;;;;;;34.90;20.90;;;;;;;3.88;85.36;100281.14;107983;1256;138487;-62
2024/01/01 07:25:27;;;;;;;34.60;21.30;;;;;;;3.87;85.26;100271.40;108953;1255;71785;-63
2024/01/01 07:27:54;;;;;;;35.00;22.80;;;;;;;3.90;85.40;100272.75;108588;1256;138880;-62
2024/01/01 07:30:21;;;;;;;35.90;21.40;;;;;;;3.91;85.38;100276.96;108848;1256;59211;-63
2024/01/01 07:32:48;;;;;;;37.40;22.60;;;;;;;3.92;85.39;100271.08;108672;1256;140304;-62
2024/01/01 07:35:14;;;;;;;34.30;21.40;;;;;;;3.93;85.45;100275.96;108833;1256;66021;-62
2024/01/01 07:37:41;;;;;;;34.60;22.30;;;;;;;3.94;85.41;100282.49;108772;1256;71433;-63
2024/01/01 07:40:08;;;;;;;34.90;21.00;;;;;;;3.95;85.37;100281.46;104993;1261;138985;-62
2024/01/01 07:42:34;;;;;;;39.20;23.10;;;;;;;3.94;85.33;100282.98;108809;1256;60667;-62
2024/01/01 07:45:01;;;;;;;39.40;22.40;;;;;;;3.94;85.28;100281.92;106609;1258;138943;-62
2024/01/01 07:47:28;;;;;;;35.90;21.40;;;;;;;3.95;85.51;100282.01;105129;1258;64661;-62
2024/01/01 07:49:54;;;;;;;35.40;21.70;;;;;;;3.96;85.47;100283.56;105007;1262;71409;-61
2024/01/01 07:52:21;;;;;;;41.10;23.90;;;;;;;3.95;85.52;100288.77;104727;1261;138872;-61
2024/01/01 07:54:54;;;;;;;38.30;23.00;;;;;;;3.95;85.54;100285.30;104963;1256;61194;-61
2024/01/01 07:57:21;;;;;;;39.90;23.60;;;;;;;3.97;85.60;100277.38;104825;1257;139058;-61
2024/01/01 07:59:48;;;;;;;41.20;23.30;;;;;;;3.96;85.60;100275.27;104874;1262;66425;-63
2024/01/01 08:02:15;;;;;;;38.50;22.60;;;;;;;3.93;85.51;100273.56;104903;1256;72737;-62
2024/01/01 08:04:42;;;;;;;39.50;23.00;;;;;;;3.94;85.66;100273.09;104825;1256;139878;-63
2024/01/01 08:07:09;;;;;;;35.50;23.00;;;;;;;3.95;85.79;100276.44;104709;1256;61305;-63
2024/01/01 08:09:35;;;;;;;42.30;24.30;;;;;;;3.97;85.86;100269.55;104836;1260;139105;-64
2024/01/01 08:12:02;;;;;;;38.00;24.40;;;;;;;3.98;85.79;100264.08;104864;1261;66630;-65
2024/01/01 08:14:29;;;;;;;39.90;22.90;;;;;;;3.99;85.83;100257.35;106459;1256;72533;-65
2024/01/01 08:16:55;;;;;;;44.30;24.20;;;;;;;4.02;85.91;100256.77;104852;1256;138907;-64
2024/01/01 08:19:22;;;;;;;41.40;24.30;;;;;;;4.04;85.84;100254.98;104729;1261;61143;-65
2024/01/01 08:21:49;;;;;;;43.30;24.80;;;;;;;4.06;85.81;100257.45;104727;1256;138806;-65
2024/01/01 08:24:16;;;;;;;42.20;25.10;;;;;;;4.08;85.87;100261.05;104922;1262;67654;-64
2024/01/01 08:26:42;;;;;;;42.20;24.60;;;;;;;4.10;85.83;100261.28;104838;1256;139548;-64
2024/01/01 08:29:09;;;;;;;44.10;25.50;;;;;;;4.13;85.89;100259.48;105086;1259;61203;-65
2024/01/01 08:31:36;;;;;;;49.60;26.00;;;;;;;4.16;85.96;100266.38;105005;1255;61221;-64
2024/01/01 08:34:02;;;;;;;44.90;26.20;;;;;;;4.17;85.90;100271.14;104869;1259;139001;-65
2024/01/01 08:36:29;;;;;;;43.50;26.20;;;;;;;4.18;85.75;100268.73;104980;1261;67279;-66
2024/01/01 08:38:56;;;;;;;47.90;26.80;;;;;;;4.15;85.86;100268.80;104887;1259;140090;-65
2024/01/01 08:41:23;;;;;;;47.70;26.40;;;;;;;4.16;85.69;100265.67;104919;1257;61236;-68
2024/01/01 08:43:56;;;;;;;47.80;27.40;;;;;;;4.16;85.73;100260.48;105215;1259;61623;-67
2024/01/01 08:46:24;;;;;;;49.70;28.20;;;;;;;4.17;85.65;100263.14;104840;1255;139028;-65
2024/01/01 08:48:52;;;;;;;55.50;28.00;;;;;;;4.18;85.76;100264.20;105082;1257;64489;-64
2024/01/01 08:51:19;;;;;;;48.30;27.50;;;;;;;4.18;85.67;100264.23;104951;1257;139420;-64
2024/01/01 08:53:45;;;;;;;53.90;28.20;;;;;;;4.20;85.93;100262.57;104926;1257;61335;-66
2024/01/01 08:56:12;;;;;;;58.90;29.80;;;;;;;4.20;85.77;100261.02;105007;1257;61590;-66
2024/01/01 08:58:39;;;;;;;48.40;26.50;;;;;;;4.21;85.83;100271.11;104866;1257;139229;-65
2024/01/01 09:01:06;;;;;;;56.30;29.20;;;;;;;4.22;85.94;100276.41;105043;1259;65508;-66
2024/01/01 09:03:33;;;;;;;54.80;28.60;;;;;;;4.23;85.82;100276.42;104922;1256;138893;-66
2024/01/01 09:06:00;;;;;;;58.30;29.90;;;;;;;4.23;85.81;100278.85;105114;1258;61764;-65
2024/01/01 09:08:28;;;;;;;60.40;30.20;;;;;;;4.25;85.96;100281.89;105071;1261;61357;-64
2024/01/01 09:10:55;;;;;;;56.90;28.80;;;;;;;4.27;85.90;100280.24;109004;1258;138931;-65
2024/01/01 09:13:22;;;;;;;53.60;29.40;;;;;;;4.29;85.81;100282.05;109015;1257;64981;-66
2024/01/01 09:15:48;;;;;;;59.30;30.30;;;;;;;4.28;85.80;100282.71;108923;1256;138752;-66
2024/01/01 09:18:15;;;;;;;62.90;30.40;;;;;;;4.29;85.89;100280.16;109102;1256;60123;-66
2024/01/01 09:20:42;;;;;;;59.10;32.20;;;;;;;4.31;85.76;100278.31;108958;1255;138834;-64
2024/01/01 09:23:09;;;;;;;59.30;32.50;;;;;;;4.32;85.66;100276.96;109075;1255;74058;-66
2024/01/01 09:25:41;;;;;;;57.60;30.60;;;;;;;4.33;85.72;100275.11;109028;1257;66275;-65
2024/01/01 09:28:08;;;;;;;66.80;33.70;;;;;;;4.36;85.75;100274.02;108952;1256;138683;-66
2024/01/01 09:30:34;;;;;;;62.40;31.00;;;;;;;4.37;85.78;100273.17;105355;1257;61279;-62
2024/01/01 09:33:01;;;;;;;64.20;32.50;;;;;;;4.40;85.78;100274.18;104887;1257;139106;-62
2024/01/01 09:35:28;;;;;;;62.90;31.80;;;;;;;4.41;85.87;100273.73;105066;1256;72598;-65
2024/01/01 09:37:55;;;;;;;62.70;33.60;;;;;;;4.42;85.89;100271.33;104950;1257;64705;-66
2024/01/01 09:40:22;;;;;;;66.00;33.10;;;;;;;4.45;85.91;100268.67;104727;1257;162544;-67
2024/01/01 09:42:48;;;;;;;74.30;35.30;;;;;;;4.45;85.85;100267.96;105044;1259;61302;-66
2024/01/01 09:45:15;;;;;;;81.60;36.90;;;;;;;4.45;86.06;100263.45;104742;1262;139205;-66
2024/01/01 09:47:42;;;;;;;77.80;37.10;;;;;;;4.47;86.04;100266.83;105089;1257;73139;-66
2024/01/01 09:50:09;;;;;;;75.70;35.80;;;;;;;4.48;86.02;100266.88;108912;1256;67542;-66
2024/01/01 09:52:37;;;;;;;79.80;35.00;;;;;;;4.48;86.01;100265.86;105750;1262;139065;-66
2024/01/01 09:55:04;;;;;;;80.30;37.50;;;;;;;4.51;86.15;100268.73;104885;1262;61259;-65
2024/01/01 09:57:30;;;;;;;78.90;37.50;;;;;;;4.52;86.19;100265.45;105179;1259;139298;-65
2024/01/01 09:59:59;;;;;;;73.20;36.30;;;;;;;4.50;86.10;100266.44;105016;1261;75333;-67
2024/01/01 10:02:28;;;;;;;90.50;39.80;;;;;;;4.47;86.05;100269.30;105160;1256;67650;-65
2024/01/01 10:05:12;;;;;;;79.50;38.60;;;;;;;4.48;86.30;100268.29;108936;1256;138850;-66
2024/01/01 10:07:39;;;;;;;73.30;37.40;;;;;;;4.47;86.19;100269.10;109049;1255;59642;-65
2024/01/01 10:10:06;;;;;;;83.10;40.20;;;;;;;4.49;86.32;100267.77;108803;1255;138826;-63
2024/01/01 10:12:33;;;;;;;78.60;40.60;;;;;;;4.51;86.47;100256.91;108620;1256;74098;-63
2024/01/01 10:14:59;;;;;;;84.70;40.10;;;;;;;4.53;86.36;100252.13;104999;1257;139577;-63
2024/01/01 10:17:26;;;;;;;91.10;41.00;;;;;;;4.54;86.44;100254.07;105181;1257;74523;-64
2024/01/01 10:19:56;;;;;;;85.40;40.40;;;;;;;4.56;86.42;100252.77;105223;1256;61268;-63
2024/01/01 10:22:23;;;;;;;87.40;42.20;;;;;;;4.57;86.55;100247.77;105283;1257;138680;-62
2024/01/01 10:24:52;;;;;;;96.20;46.10;;;;;;;4.58;86.55;100245.39;108853;1257;75264;-61
2024/01/01 10:27:19;;;;;;;100.90;45.00;;;;;;;4.61;86.69;100241.88;108830;1257;139069;-61
2024/01/01 10:29:49;;;;;;;95.30;46.20;;;;;;;4.64;86.77;100250.70;108959;1256;70502;-65
2024/01/01 10:32:17;;;;;;;101.00;45.40;;;;;;;4.68;86.91;100248.73;109087;1256;59582;-65
2024/01/01 10:34:44;;;;;;;92.00;45.30;;;;;;;4.73;86.91;100248.80;109024;1255;138738;-62
2024/01/01 10:37:11;;;;;;;104.40;46.50;;;;;;;4.75;86.83;100247.48;109096;1256;73864;-66
2024/01/01 10:39:38;;;;;;;88.60;45.30;;;;;;;4.78;86.84;100246.56;108974;1255;138956;-66
2024/01/01 10:42:05;;;;;;;96.10;47.00;;;;;;;4.83;86.85;100245.36;109081;1256;72976;-64
2024/01/01 10:44:32;;;;;;;94.60;45.70;;;;;;;4.87;86.82;100240.46;109028;1256;59265;-67
2024/01/01 10:46:59;;;;;;;88.60;44.10;;;;;;;4.90;86.86;100234.83;108973;1255;138385;-67
2024/01/01 10:49:29;;;;;;;99.40;49.10;;;;;;;4.95;86.83;100230.69;108867;1255;73539;-67
2024/01/01 10:52:18;;;;;;;106.90;49.80;;;;;;;5.00;87.00;100228.81;108854;1257;139240;-66
2024/01/01 10:55:01;;;;;;;100.90;48.00;;;;;;;5.08;86.96;100225.29;108988;1255;72692;-61
2024/01/01 10:58:06;;;;;;;106.10;48.40;;;;;;;5.11;86.73;100218.10;108866;1257;139831;-61
2024/01/01 11:00:59;;;;;;;111.10;50.90;;;;;;;5.16;86.86;100217.59;108625;1262;60517;-64
2024/01/01 11:03:26;;;;;;;110.50;52.90;;;;;;;5.17;86.71;100218.15;104977;1263;139266;-62
2024/01/01 11:05:52;;;;;;;116.10;52.70;;;;;;;5.18;86.75;100220.27;104628;1268;66643;-61
2024/01/01 11:08:26;;;;;;;118.70;55.20;;;;;;;5.19;86.71;100218.05;104619;1268;72008;-64